Terminal Aerodrome Forecast
Issued by NWS

Home | Current Version | Previous Version | Text Only | Print | Product List | Glossary On
Versions: 1 2 3 4 5 6 7 8 9 10 11 12 13
000
FTUS44 KEPZ 161700 RRA
TAFLRU
TAF
KLRU 161745Z 1618/1718 25011KT P6SM SKC
     FM162100 27018G28KT P6SM FEW250
     FM170300 29013KT P6SM SCT150 BKN250
     FM170900 31007KT P6SM FEW250
     FM171500 08006KT P6SM FEW250=

USA.gov is the U.S. government's official web portal to all federal, state and local government web resources and services.